KCNY/CNY METAR and TAF weather

Enter ICAO airport designator
Station Type Date Time Source
KCNY METAR 2019/04/18 19:53 UTC NOAA

KCNY 181953Z AUTO 12003KT 10SM CLR 18/M05 A3026 RMK AO2 SLP218 T01831050


Station Type Date Time Source
KCNY Decoded METAR 2019/04/18 19:53 UTC NOAA

MOAB CANYONLANDS FIELD, UT, United States (KCNY) 38-46N 109-45W 1390M
Apr 18, 2019 - 03:53 PM EDT / 2019.04.18 1953 UTC
Wind: from the ESE (120 degrees) at 3 MPH (3 KT):0
Visibility: 10 mile(s):0
Sky conditions: clear
Temperature: 64.9 F (18.3 C)
Dew Point: 23.0 F (-5.0 C)
Relative Humidity: 20%
Pressure (altimeter): 30.26 in. Hg (1024 hPa)
ob: KCNY 181953Z AUTO 12003KT 10SM CLR 18/M05 A3026 RMK AO2 SLP218 T01831050
cycle: 20

Station Type Date Time Source
KCNY TAF 2019/04/18 18:33 UTC NOAA

TAF
AMD KCNY 181731Z 1818/1918 18004KT P6SM SKC
FM182000 33006KT P6SM SKC
FM190200 06004KT P6SM SKC
FM191200 VRB03KT P6SM SKC

Example: see airport list